Time;durP1;ratioP1;P1;durP2;ratioP2;P2;SDS_P1;SDS_P2;PMS_P1;PMS_P2;Temp;Humidity;BMP_temperature;BMP_pressure;BME280_temperature;BME280_humidity;BME280_pressure;Samples;Min_cycle;Max_cycle;Signal;HPM_P1;HPM_P2
2021/06/13 00:04:41;;;;;;;14.40;9.13;;;;;;;13.26;100.00;94786.91;10525919;28;20051;-72
2021/06/13 00:09:41;;;;;;;16.07;9.77;;;;;;;13.30;100.00;94787.94;10526136;28;20266;-72
2021/06/13 00:14:42;;;;;;;17.73;10.20;;;;;;;13.35;100.00;94784.38;10524859;28;20012;-72
2021/06/13 00:19:43;;;;;;;11.88;8.35;;;;;;;13.35;100.00;94789.78;10523798;28;20019;-72
2021/06/13 00:24:44;;;;;;;13.63;8.73;;;;;;;13.12;100.00;94775.22;10525039;28;20047;-73
2021/06/13 00:29:44;;;;;;;20.83;10.17;;;;;;;13.03;100.00;94772.31;10523412;28;20414;-72
2021/06/13 00:34:44;;;;;;;17.77;9.83;;;;;;;12.98;100.00;94770.50;10524839;28;20865;-72
2021/06/13 00:39:45;;;;;;;17.27;9.98;;;;;;;13.09;100.00;94773.88;10525432;28;20027;-72
2021/06/13 00:44:45;;;;;;;12.37;8.50;;;;;;;12.93;100.00;94767.84;10525227;28;20770;-72
2021/06/13 00:49:46;;;;;;;15.52;9.43;;;;;;;12.82;100.00;94755.56;10525072;28;20479;-72
2021/06/13 00:54:46;;;;;;;11.50;8.13;;;;;;;12.73;100.00;94760.78;10524340;28;20077;-72
2021/06/13 00:59:47;;;;;;;17.90;11.27;;;;;;;12.83;100.00;94760.69;10524355;28;20024;-72
2021/06/13 01:04:47;;;;;;;12.80;7.93;;;;;;;12.84;100.00;94753.41;10524497;28;20028;-72
2021/06/13 01:09:57;;;;;;;11.00;7.87;;;;;;;12.83;100.00;94743.69;10524570;28;20783;-72
2021/06/13 01:15:07;;;;;;;10.98;8.25;;;;;;;12.76;100.00;94752.13;10533295;28;20027;-72
2021/06/13 01:20:23;;;;;;;12.65;8.48;;;;;;;12.63;100.00;94737.44;10532730;28;20135;-72
2021/06/13 01:25:45;;;;;;;14.07;8.55;;;;;;;12.64;100.00;94720.19;10531999;28;20035;-72
2021/06/13 01:30:46;;;;;;;11.60;7.97;;;;;;;12.63;100.00;94726.66;10531189;28;20040;-72
2021/06/13 01:35:48;;;;;;;12.38;8.57;;;;;;;12.57;100.00;94743.97;10531896;28;20068;-72
2021/06/13 01:40:51;;;;;;;17.52;9.68;;;;;;;12.55;100.00;94742.66;10532263;28;20038;-72
2021/06/13 01:45:54;;;;;;;11.07;8.60;;;;;;;12.38;100.00;94743.88;10531466;28;20028;-72
2021/06/13 01:50:55;;;;;;;15.25;9.07;;;;;;;12.36;100.00;94748.75;10531558;28;20042;-72
2021/06/13 01:55:57;;;;;;;18.15;10.38;;;;;;;12.27;100.00;94740.47;10531128;28;20073;-72
2021/06/13 02:00:59;;;;;;;17.25;10.60;;;;;;;12.23;100.00;94739.44;10531303;28;20461;-72
2021/06/13 02:06:01;;;;;;;15.20;11.23;;;;;;;12.07;100.00;94736.09;10531167;28;20036;-72
2021/06/13 02:11:04;;;;;;;23.75;12.90;;;;;;;12.16;100.00;94735.47;10530786;28;20110;-72
2021/06/13 02:16:06;;;;;;;20.23;11.43;;;;;;;12.21;100.00;94735.41;10530721;28;20032;-72
2021/06/13 02:21:08;;;;;;;17.42;11.50;;;;;;;12.36;100.00;94743.34;10530381;28;20028;-72
2021/06/13 02:26:14;;;;;;;19.52;12.18;;;;;;;12.40;100.00;94736.31;10530133;28;20032;-72
2021/06/13 02:31:16;;;;;;;14.90;10.73;;;;;;;12.38;100.00;94741.19;10530148;28;20035;-72
2021/06/13 02:36:17;;;;;;;12.57;7.43;;;;;;;12.26;100.00;94730.78;10529846;28;20028;-72
2021/06/13 02:41:17;;;;;;;7.40;6.50;;;;;;;11.92;100.00;94710.03;10530090;28;20451;-72
2021/06/13 02:46:18;;;;;;;11.10;6.07;;;;;;;11.73;100.00;94706.41;10529322;28;20031;-71
2021/06/13 02:51:24;;;;;;;9.70;5.25;;;;;;;11.63;100.00;94718.06;10528884;28;20273;-72
2021/06/13 02:56:33;;;;;;;7.55;5.35;;;;;;;11.50;100.00;94718.69;10528403;28;20062;-73
2021/06/13 03:01:36;;;;;;;6.18;5.28;;;;;;;11.49;100.00;94722.47;10526932;28;20028;-72
2021/06/13 03:06:37;;;;;;;8.77;5.70;;;;;;;11.44;100.00;94720.59;10527965;28;20031;-72
2021/06/13 03:11:38;;;;;;;11.20;5.47;;;;;;;11.43;100.00;94719.81;10527178;28;20028;-73
2021/06/13 03:16:39;;;;;;;7.13;5.13;;;;;;;11.50;100.00;94722.19;10527978;28;20028;-72
2021/06/13 03:21:41;;;;;;;11.50;5.10;;;;;;;11.52;100.00;94722.72;10526812;28;20066;-72
2021/06/13 03:26:42;;;;;;;6.43;5.15;;;;;;;11.69;100.00;94706.16;10526901;28;20100;-72
2021/06/13 03:31:44;;;;;;;6.38;5.15;;;;;;;11.76;100.00;94700.47;10527079;28;20837;-72
2021/06/13 03:36:45;;;;;;;8.82;5.65;;;;;;;11.80;100.00;94701.50;10523867;28;20383;-72
2021/06/13 03:41:46;;;;;;;8.00;6.35;;;;;;;11.99;100.00;94708.94;10526310;28;20031;-73
2021/06/13 03:46:47;;;;;;;9.15;6.88;;;;;;;12.12;100.00;94714.47;10526336;28;20778;-73
2021/06/13 03:51:47;;;;;;;10.13;7.10;;;;;;;12.28;100.00;94714.34;10525805;28;20012;-73
2021/06/13 03:56:59;;;;;;;7.22;6.13;;;;;;;12.37;100.00;94722.63;10525789;28;20032;-72
2021/06/13 04:02:02;;;;;;;13.27;7.28;;;;;;;12.46;100.00;94699.31;10524207;28;20035;-72
2021/06/13 04:07:05;;;;;;;14.98;6.55;;;;;;;12.44;100.00;94694.22;10525714;28;20035;-72
2021/06/13 04:12:08;;;;;;;10.82;6.70;;;;;;;12.51;100.00;94695.78;10524848;28;20073;-72
2021/06/13 04:17:11;;;;;;;8.60;5.82;;;;;;;12.78;100.00;94679.84;10524763;28;20020;-73
2021/06/13 04:22:14;;;;;;;7.68;6.05;;;;;;;13.12;100.00;94670.78;10524816;28;20062;-72
2021/06/13 04:27:19;;;;;;;6.75;5.10;;;;;;;13.71;100.00;94670.50;10524941;28;20035;-72
2021/06/13 04:32:20;;;;;;;9.07;4.57;;;;;;;14.10;100.00;94669.31;10533869;28;20434;-72
2021/06/13 04:37:20;;;;;;;7.47;4.80;;;;;;;14.15;100.00;94653.00;10523572;28;20031;-72
2021/06/13 04:42:21;;;;;;;10.00;4.70;;;;;;;14.74;100.00;94652.47;10524537;28;20059;-73
2021/06/13 04:47:21;;;;;;;7.88;5.13;;;;;;;15.04;100.00;94661.88;10523407;28;20083;-73
2021/06/13 04:52:23;;;;;;;6.57;4.87;;;;;;;15.38;100.00;94651.69;10524147;28;20020;-73
2021/06/13 04:57:42;;;;;;;7.28;5.38;;;;;;;15.84;100.00;94658.75;10523703;28;20024;-72
2021/06/13 05:02:44;;;;;;;7.65;5.57;;;;;;;16.70;100.00;94647.88;10523915;28;20097;-72
2021/06/13 05:07:45;;;;;;;6.90;4.93;;;;;;;17.23;100.00;94663.22;10522228;28;20032;-73
2021/06/13 05:12:51;;;;;;;13.13;4.87;;;;;;;17.28;100.00;94664.19;10522953;28;20024;-73
2021/06/13 05:17:52;;;;;;;8.43;5.65;;;;;;;17.47;100.00;94667.41;10523016;28;20278;-73
2021/06/13 05:23:01;;;;;;;7.45;5.25;;;;;;;17.52;100.00;94659.06;10523380;28;20438;-73
2021/06/13 05:28:04;;;;;;;10.48;5.70;;;;;;;17.71;100.00;94657.97;10521688;28;20131;-72
2021/06/13 05:33:04;;;;;;;9.35;5.90;;;;;;;18.19;100.00;94654.25;10520970;28;20056;-73
2021/06/13 05:38:06;;;;;;;11.27;6.65;;;;;;;18.23;100.00;94662.56;10522236;28;20028;-73
2021/06/13 05:43:07;;;;;;;9.43;5.72;;;;;;;17.99;100.00;94649.50;10522686;28;20827;-73
2021/06/13 05:48:09;;;;;;;23.00;6.45;;;;;;;18.26;100.00;94646.38;10520348;28;20506;-73
2021/06/13 05:53:09;;;;;;;11.45;6.72;;;;;;;18.85;100.00;94647.63;10522731;28;20024;-74
2021/06/13 05:58:09;;;;;;;9.55;6.15;;;;;;;19.30;100.00;94646.28;10525320;28;20096;-75
2021/06/13 06:03:10;;;;;;;15.50;6.30;;;;;;;19.75;100.00;94644.84;10530092;28;20034;-74
2021/06/13 06:08:10;;;;;;;10.67;5.57;;;;;;;20.11;100.00;94640.69;10530518;28;20063;-73
2021/06/13 06:13:11;;;;;;;9.87;6.37;;;;;;;19.78;100.00;94641.44;10524159;28;20868;-74
2021/06/13 06:18:12;;;;;;;10.80;6.85;;;;;;;19.41;100.00;94649.41;10496175;28;20345;-73
2021/06/13 06:23:12;;;;;;;10.80;7.82;;;;;;;18.94;100.00;94648.41;10535084;28;20028;-74
2021/06/13 06:28:12;;;;;;;13.68;7.70;;;;;;;18.92;100.00;94644.41;10530589;28;20902;-73
2021/06/13 06:33:13;;;;;;;14.97;9.20;;;;;;;19.46;100.00;94641.81;10526335;28;20051;-73
2021/06/13 06:38:13;;;;;;;16.57;8.73;;;;;;;21.09;100.00;94631.03;10522165;28;20032;-73
2021/06/13 06:43:14;;;;;;;13.07;7.80;;;;;;;22.61;100.00;94627.91;10528995;28;20273;-73
2021/06/13 06:48:14;;;;;;;20.73;7.13;;;;;;;23.54;100.00;94621.06;10528709;28;20467;-74
2021/06/13 06:53:14;;;;;;;13.50;6.63;;;;;;;24.00;94.82;94615.81;10528437;28;20032;-73
2021/06/13 06:58:15;;;;;;;13.33;7.30;;;;;;;24.98;84.83;94604.56;10528193;28;20020;-73
2021/06/13 07:03:15;;;;;;;12.33;6.07;;;;;;;26.68;76.85;94596.47;10526394;28;20024;-73
2021/06/13 07:08:16;;;;;;;13.93;6.30;;;;;;;27.44;66.95;94605.34;10525007;28;20025;-74
2021/06/13 07:13:17;;;;;;;10.75;7.18;;;;;;;27.50;67.38;94600.25;10526169;28;20036;-74
2021/06/13 07:18:17;;;;;;;10.97;7.00;;;;;;;25.64;79.06;94589.81;10527008;28;20024;-73
2021/06/13 07:23:17;;;;;;;10.13;6.07;;;;;;;27.41;69.92;94578.53;10526677;28;20775;-73
2021/06/13 07:28:18;;;;;;;14.80;5.90;;;;;;;27.48;64.94;94578.56;10526607;28;20039;-73
2021/06/13 07:33:18;;;;;;;9.17;5.87;;;;;;;26.83;72.87;94574.56;10526169;28;20229;-74
2021/06/13 07:38:19;;;;;;;10.80;5.20;;;;;;;26.98;71.69;94572.72;10525901;28;20721;-73
2021/06/13 07:43:19;;;;;;;12.37;5.80;;;;;;;28.24;69.16;94565.06;10526748;28;20026;-73
2021/06/13 07:48:19;;;;;;;7.40;4.90;;;;;;;29.27;59.08;94563.56;10526121;28;20031;-73
2021/06/13 07:53:20;;;;;;;5.75;4.10;;;;;;;27.43;58.77;94565.94;10524356;28;20076;-73
2021/06/13 07:58:20;;;;;;;6.23;4.63;;;;;;;25.91;69.36;94563.81;10525954;28;20024;-73
2021/06/13 08:03:20;;;;;;;6.70;5.13;;;;;;;26.03;79.61;94562.75;10525996;28;20028;-74
2021/06/13 08:08:21;;;;;;;8.13;4.33;;;;;;;26.81;70.09;94563.91;10524854;28;20067;-74
2021/06/13 08:13:21;;;;;;;6.37;4.87;;;;;;;26.43;70.14;94565.94;10525173;28;20039;-73
2021/06/13 08:18:22;;;;;;;8.65;5.45;;;;;;;26.98;68.15;94581.75;10524915;28;20073;-74
2021/06/13 08:23:22;;;;;;;9.50;5.13;;;;;;;28.08;56.99;94571.75;10525177;28;20058;-74
2021/06/13 08:28:22;;;;;;;9.77;5.80;;;;;;;28.37;51.89;94568.25;10523982;28;20020;-73
2021/06/13 08:33:24;;;;;;;14.03;7.27;;;;;;;25.78;67.19;94572.69;10524727;28;20059;-73
2021/06/13 08:38:25;;;;;;;10.45;7.47;;;;;;;24.80;78.08;94579.56;10524358;28;20027;-73
2021/06/13 08:43:25;;;;;;;10.50;8.20;;;;;;;23.66;86.56;94579.00;10523864;28;20027;-73
2021/06/13 08:48:30;;;;;;;10.65;7.72;;;;;;;22.71;99.17;94591.78;10524306;28;20020;-73
2021/06/13 08:53:30;;;;;;;12.85;8.73;;;;;;;21.09;100.00;94577.19;10523943;28;20024;-73
2021/06/13 08:58:31;;;;;;;14.63;9.43;;;;;;;20.81;100.00;94588.81;10523646;28;20020;-73
2021/06/13 09:03:32;;;;;;;9.90;8.63;;;;;;;21.11;100.00;94587.75;10523875;28;20196;-73
2021/06/13 09:08:37;;;;;;;8.55;6.55;;;;;;;21.16;100.00;94582.84;10523063;28;20087;-73
2021/06/13 09:13:42;;;;;;;12.05;8.40;;;;;;;20.87;100.00;94592.13;10523549;28;20028;-73
2021/06/13 09:18:46;;;;;;;11.60;9.20;;;;;;;20.70;100.00;94604.06;10522788;28;20020;-74
2021/06/13 09:23:47;;;;;;;14.60;8.50;;;;;;;20.52;100.00;94608.91;10523107;28;20036;-73
2021/06/13 09:28:52;;;;;;;12.10;8.57;;;;;;;20.08;100.00;94619.50;10521649;28;20047;-73
2021/06/13 09:33:55;;;;;;;7.80;6.60;;;;;;;19.70;100.00;94625.94;10519899;28;20060;-73
2021/06/13 09:39:05;;;;;;;8.00;7.18;;;;;;;19.79;100.00;94629.41;10528297;28;20388;-73
2021/06/13 09:44:08;;;;;;;7.93;6.55;;;;;;;19.98;100.00;94631.63;10523342;28;20077;-73
2021/06/13 09:49:20;;;;;;;6.32;5.38;;;;;;;19.37;100.00;94643.84;10531117;28;20621;-73
2021/06/13 09:54:23;;;;;;;9.45;6.03;;;;;;;17.72;100.00;94638.63;10505888;28;20029;-73
2021/06/13 09:59:26;;;;;;;10.02;6.10;;;;;;;17.23;100.00;94651.53;10520826;28;20588;-73
2021/06/13 10:04:32;;;;;;;13.93;6.60;;;;;;;16.95;100.00;94664.59;10531813;28;20028;-73
2021/06/13 10:09:40;;;;;;;8.27;6.30;;;;;;;16.67;100.00;94676.41;10531847;28;20407;-73
2021/06/13 10:14:41;;;;;;;9.88;6.28;;;;;;;16.75;100.00;94672.94;10530911;28;20024;-73
2021/06/13 10:19:43;;;;;;;8.87;6.57;;;;;;;16.50;100.00;94677.16;10527220;28;20043;-73
2021/06/13 10:24:47;;;;;;;7.82;6.30;;;;;;;16.28;100.00;94679.91;10509363;28;20293;-73
2021/06/13 10:29:50;;;;;;;16.50;11.75;;;;;;;16.58;100.00;94678.31;10513162;28;20455;-73
2021/06/13 10:34:51;;;;;;;9.05;6.10;;;;;;;16.38;100.00;94674.22;10505091;28;20045;-73
2021/06/13 10:39:52;;;;;;;9.55;6.13;;;;;;;16.25;100.00;94680.53;10499093;28;20082;-73
2021/06/13 10:44:57;;;;;;;9.00;6.18;;;;;;;16.17;100.00;94682.06;10523981;28;20027;-75
2021/06/13 10:50:08;;;;;;;9.85;5.88;;;;;;;16.37;100.00;94683.50;10505176;28;20028;-75
2021/06/13 10:55:09;;;;;;;9.10;5.68;;;;;;;16.55;100.00;94687.09;10505161;28;20043;-76
2021/06/13 11:00:18;;;;;;;11.75;6.28;;;;;;;16.74;100.00;94682.22;10508138;28;20032;-76
2021/06/13 11:05:39;;;;;;;8.75;6.05;;;;;;;16.66;100.00;94668.59;10504693;28;20111;-76
2021/06/13 11:10:40;;;;;;;9.90;5.18;;;;;;;16.65;100.00;94667.81;10518742;28;20027;-76
2021/06/13 11:15:42;;;;;;;7.53;5.35;;;;;;;16.83;100.00;94660.53;10523493;28;20028;-76
2021/06/13 11:20:54;;;;;;;6.15;4.78;;;;;;;17.12;100.00;94652.97;10508206;28;20098;-76
2021/06/13 11:25:59;;;;;;;6.35;3.72;;;;;;;17.27;100.00;94657.16;10502927;28;20044;-76
2021/06/13 11:31:09;;;;;;;5.30;3.95;;;;;;;17.79;100.00;94648.22;10510712;28;20457;-76
2021/06/13 11:36:15;;;;;;;5.32;3.50;;;;;;;18.08;100.00;94636.69;10527801;28;20043;-76
2021/06/13 11:41:28;;;;;;;5.07;3.72;;;;;;;18.44;100.00;94638.19;10526209;28;20129;-76
2021/06/13 11:46:31;;;;;;;3.00;2.70;;;;;;;18.83;100.00;94630.81;10527577;28;20028;-76
2021/06/13 11:51:47;;;;;;;2.78;2.53;;;;;;;18.53;100.00;94625.34;10528384;28;20028;-76
2021/06/13 11:56:47;;;;;;;3.05;2.75;;;;;;;18.81;100.00;94640.44;10527124;28;20437;-76
2021/06/13 12:01:59;;;;;;;3.53;2.60;;;;;;;18.87;100.00;94634.50;10525131;28;20020;-77
2021/06/13 12:07:08;;;;;;;7.93;2.95;;;;;;;18.70;100.00;94626.38;10541344;28;20025;-76
2021/06/13 12:12:10;;;;;;;3.08;2.78;;;;;;;18.04;100.00;94611.25;10532211;28;20540;-77
2021/06/13 12:17:13;;;;;;;3.65;3.35;;;;;;;18.00;100.00;94616.56;10526378;28;20024;-77
2021/06/13 12:27:52;;;;;;;5.20;2.92;;;;;;;18.21;100.00;94611.22;10525139;28;20051;-76
2021/06/13 12:32:56;;;;;;;5.35;3.10;;;;;;;18.42;100.00;94618.69;10483678;28;20052;-76
2021/06/13 12:38:11;;;;;;;5.18;4.13;;;;;;;19.18;100.00;94629.84;10484432;28;20829;-76
2021/06/13 12:43:12;;;;;;;5.00;2.80;;;;;;;19.08;100.00;94620.94;10525707;28;20035;-76
2021/06/13 12:48:13;;;;;;;3.63;2.88;;;;;;;19.02;100.00;94621.44;10526357;28;20032;-74
2021/06/13 12:53:17;;;;;;;6.30;3.30;;;;;;;19.25;100.00;94609.13;10525393;28;20027;-76
2021/06/13 12:58:20;;;;;;;3.90;3.50;;;;;;;19.30;100.00;94597.25;10525675;28;20082;-76
2021/06/13 13:03:23;;;;;;;4.15;3.75;;;;;;;19.18;100.00;94599.88;10525503;28;20139;-76
2021/06/13 13:08:24;;;;;;;4.03;3.63;;;;;;;18.89;100.00;94601.50;10530068;28;20028;-76
2021/06/13 13:13:40;;;;;;;5.40;4.05;;;;;;;18.71;100.00;94601.59;10514806;28;20029;-75
2021/06/13 13:18:41;;;;;;;7.18;4.47;;;;;;;19.09;100.00;94608.13;10507004;28;20016;-73
2021/06/13 13:23:47;;;;;;;5.72;4.45;;;;;;;19.32;100.00;94599.63;10510843;28;20031;-73
2021/06/13 13:28:55;;;;;;;9.90;6.45;;;;;;;18.94;100.00;94599.38;10518631;28;20548;-72
2021/06/13 13:34:02;;;;;;;7.18;5.25;;;;;;;19.16;100.00;94599.41;10547648;28;20056;-72
2021/06/13 13:39:14;;;;;;;6.75;3.85;;;;;;;19.22;100.00;94596.16;10533037;28;20020;-72
2021/06/13 13:44:21;;;;;;;4.65;4.18;;;;;;;19.11;100.00;94587.56;10533735;28;20898;-72
2021/06/13 13:49:23;;;;;;;4.55;4.15;;;;;;;18.67;100.00;94588.94;10544862;28;20028;-73
2021/06/13 13:54:31;;;;;;;8.45;5.57;;;;;;;18.33;100.00;94577.09;10531811;28;20024;-73
2021/06/13 13:59:34;;;;;;;7.20;4.70;;;;;;;18.40;100.00;94572.72;10532561;28;20027;-73
2021/06/13 14:04:36;;;;;;;5.20;4.70;;;;;;;18.45;100.00;94572.56;10533176;28;20815;-73
2021/06/13 14:09:39;;;;;;;6.57;5.22;;;;;;;18.37;100.00;94578.03;10531832;28;20395;-73
2021/06/13 14:14:39;;;;;;;7.55;5.40;;;;;;;18.73;100.00;94579.47;10532599;28;20097;-72
2021/06/13 14:19:40;;;;;;;6.53;5.40;;;;;;;18.52;100.00;94579.41;10532130;28;20081;-72
2021/06/13 14:24:40;;;;;;;10.10;5.10;;;;;;;18.66;100.00;94595.53;10531440;28;20036;-72
2021/06/13 14:29:40;;;;;;;7.40;5.43;;;;;;;18.48;100.00;94595.59;10531394;28;20652;-72
2021/06/13 14:34:41;;;;;;;5.77;5.13;;;;;;;18.76;100.00;94597.88;10531244;28;20052;-72
2021/06/13 14:39:42;;;;;;;14.77;5.17;;;;;;;18.99;100.00;94606.59;10531395;28;20035;-73
2021/06/13 14:44:43;;;;;;;6.45;5.40;;;;;;;18.91;100.00;94599.25;10530817;28;20490;-73
2021/06/13 14:49:43;;;;;;;6.68;5.68;;;;;;;18.74;96.67;94606.38;10531246;28;20085;-73
2021/06/13 14:54:44;;;;;;;9.23;5.80;;;;;;;18.54;96.05;94618.78;10529038;28;20036;-73
2021/06/13 14:59:44;;;;;;;5.57;4.80;;;;;;;18.41;95.82;94603.47;10530408;28;20505;-73
2021/06/13 15:04:46;;;;;;;6.55;5.47;;;;;;;18.55;94.22;94603.25;10530867;28;20293;-73
2021/06/13 15:09:46;;;;;;;5.93;5.05;;;;;;;18.50;95.24;94606.16;10530176;28;20031;-73
2021/06/13 15:14:48;;;;;;;14.30;4.68;;;;;;;18.44;94.26;94613.69;10530107;28;20035;-73
2021/06/13 15:19:50;;;;;;;7.07;5.38;;;;;;;18.50;95.18;94612.38;10530499;28;20032;-72
2021/06/13 15:24:50;;;;;;;7.13;4.97;;;;;;;18.50;94.98;94614.31;10527804;28;20028;-73
2021/06/13 15:29:53;;;;;;;6.20;5.17;;;;;;;18.64;94.95;94605.94;10528011;28;20036;-73
2021/06/13 15:34:53;;;;;;;13.30;9.95;;;;;;;18.65;94.12;94619.22;10528671;28;20135;-73
2021/06/13 15:39:56;;;;;;;6.80;5.97;;;;;;;18.52;100.00;94626.47;10528779;28;20035;-73
2021/06/13 15:44:56;;;;;;;10.82;6.97;;;;;;;18.13;100.00;94633.00;10527823;28;20059;-73
2021/06/13 15:49:58;;;;;;;8.57;7.15;;;;;;;17.97;100.00;94633.50;10527959;28;20859;-73
2021/06/13 15:54:58;;;;;;;7.78;6.07;;;;;;;17.68;100.00;94626.81;10506390;28;20039;-73
2021/06/13 15:59:59;;;;;;;12.38;7.15;;;;;;;17.80;100.00;94625.34;10510291;28;20028;-72
2021/06/13 16:05:00;;;;;;;10.37;7.57;;;;;;;17.87;100.00;94629.16;10508128;28;20549;-73
2021/06/13 16:10:01;;;;;;;9.02;7.18;;;;;;;18.13;100.00;94638.44;10501385;28;20305;-73
2021/06/13 16:15:02;;;;;;;6.78;5.90;;;;;;;18.28;100.00;94637.94;10515260;28;20035;-73
2021/06/13 16:20:03;;;;;;;5.97;5.38;;;;;;;18.10;100.00;94651.56;10517905;28;20028;-72
2021/06/13 16:25:07;;;;;;;10.18;5.13;;;;;;;18.19;100.00;94656.19;10523744;28;20092;-72
2021/06/13 16:30:08;;;;;;;8.02;5.53;;;;;;;18.18;100.00;94660.03;10504549;28;20487;-73
2021/06/13 16:35:09;;;;;;;13.20;5.07;;;;;;;18.18;100.00;94649.97;10503532;28;20048;-73
2021/06/13 16:40:11;;;;;;;9.80;5.53;;;;;;;18.03;100.00;94651.25;10508105;28;20038;-72
2021/06/13 16:45:11;;;;;;;15.23;4.95;;;;;;;17.96;100.00;94663.72;10505527;28;20480;-72
2021/06/13 16:50:13;;;;;;;9.27;4.97;;;;;;;18.02;100.00;94662.47;10502315;28;20025;-73
2021/06/13 16:55:13;;;;;;;8.40;4.75;;;;;;;17.75;100.00;94669.81;10503148;28;20008;-73
2021/06/13 17:00:15;;;;;;;16.05;6.97;;;;;;;17.80;100.00;94675.06;10502145;28;20495;-73
2021/06/13 17:05:16;;;;;;;8.25;4.82;;;;;;;17.37;100.00;94671.22;10501979;28;20020;-73
2021/06/13 17:10:16;;;;;;;5.82;4.53;;;;;;;17.05;100.00;94667.00;10501278;28;20020;-73
2021/06/13 17:15:17;;;;;;;8.95;4.95;;;;;;;16.84;100.00;94669.47;10504409;28;20028;-73
2021/06/13 17:20:18;;;;;;;9.77;4.90;;;;;;;16.86;100.00;94676.19;10501201;28;20035;-74
2021/06/13 17:25:28;;;;;;;8.23;4.75;;;;;;;16.99;100.00;94668.28;10503985;28;20020;-73
2021/06/13 17:30:28;;;;;;;12.38;3.75;;;;;;;16.96;100.00;94668.91;10505910;28;21431;-73
2021/06/13 17:35:34;;;;;;;8.27;4.10;;;;;;;17.10;100.00;94658.72;10499039;28;20056;-73
2021/06/13 17:40:35;;;;;;;5.40;3.83;;;;;;;17.07;100.00;94659.34;10502959;28;20105;-73
2021/06/13 17:45:35;;;;;;;4.97;3.95;;;;;;;17.12;100.00;94675.50;10499040;28;20082;-73
2021/06/13 17:50:36;;;;;;;7.03;3.37;;;;;;;17.18;100.00;94697.88;10500015;28;20024;-73
2021/06/13 17:55:36;;;;;;;5.67;3.37;;;;;;;17.07;100.00;94695.44;10511549;28;20013;-73
2021/06/13 18:00:37;;;;;;;5.80;2.83;;;;;;;17.00;100.00;94705.16;10506739;28;20031;-73
2021/06/13 18:05:37;;;;;;;4.73;2.77;;;;;;;16.65;100.00;94675.94;10509280;28;21421;-73
2021/06/13 18:10:38;;;;;;;7.63;3.85;;;;;;;16.60;100.00;94689.66;10507212;28;20031;-73
2021/06/13 18:15:38;;;;;;;10.27;3.60;;;;;;;16.46;100.00;94697.88;10524467;28;20020;-74
2021/06/13 18:20:38;;;;;;;4.33;3.17;;;;;;;16.39;100.00;94697.53;10528856;28;20044;-73
2021/06/13 18:25:39;;;;;;;3.25;2.85;;;;;;;16.29;100.00;94701.28;10530835;28;20063;-73
2021/06/13 18:30:39;;;;;;;3.20;2.90;;;;;;;16.26;100.00;94712.78;10520907;28;20499;-73
2021/06/13 18:35:40;;;;;;;6.15;3.50;;;;;;;16.23;100.00;94726.94;10523599;28;20507;-73
2021/06/13 18:40:41;;;;;;;5.68;3.30;;;;;;;16.11;100.00;94738.34;10522552;28;20024;-73
2021/06/13 18:45:45;;;;;;;9.02;3.17;;;;;;;15.92;100.00;94740.44;10527668;28;20035;-73
2021/06/13 18:50:46;;;;;;;6.28;4.03;;;;;;;15.96;100.00;94744.13;10527966;28;20040;-73
2021/06/13 18:55:47;;;;;;;9.15;4.93;;;;;;;15.87;100.00;94742.16;10526611;28;20468;-74
2021/06/13 19:00:48;;;;;;;11.30;4.50;;;;;;;15.85;100.00;94752.50;10528712;28;20035;-74
2021/06/13 19:05:48;;;;;;;10.75;4.63;;;;;;;15.83;100.00;94757.41;10525710;28;20388;-74
2021/06/13 19:10:48;;;;;;;9.50;4.87;;;;;;;15.81;100.00;94753.41;10527967;28;20032;-74
2021/06/13 19:15:49;;;;;;;9.57;4.40;;;;;;;15.79;100.00;94767.25;10527004;28;20032;-74
2021/06/13 19:20:49;;;;;;;7.00;3.97;;;;;;;15.83;100.00;94775.59;10526981;28;20289;-74
2021/06/13 19:25:50;;;;;;;8.43;3.13;;;;;;;15.92;100.00;94772.94;10528086;28;20023;-74
2021/06/13 19:30:51;;;;;;;9.23;3.50;;;;;;;15.92;100.00;94786.50;10527897;28;20715;-74
2021/06/13 19:35:53;;;;;;;7.38;3.95;;;;;;;16.01;100.00;94792.81;10526858;28;20109;-75
2021/06/13 19:40:53;;;;;;;7.45;4.20;;;;;;;16.00;100.00;94788.50;10527953;28;20032;-75
2021/06/13 19:45:54;;;;;;;7.63;3.42;;;;;;;15.96;100.00;94793.72;10527196;28;20101;-75
2021/06/13 19:50:55;;;;;;;11.88;3.80;;;;;;;15.93;100.00;94788.91;10517178;28;20028;-74
2021/06/13 19:55:58;;;;;;;7.28;3.65;;;;;;;15.67;100.00;94797.56;10504338;28;20082;-74
2021/06/13 20:01:00;;;;;;;4.57;2.83;;;;;;;15.68;100.00;94790.25;10489924;28;20037;-74
2021/06/13 20:06:00;;;;;;;8.18;4.03;;;;;;;15.45;100.00;94787.47;10508247;28;20057;-74
2021/06/13 20:11:03;;;;;;;8.73;3.33;;;;;;;15.30;100.00;94793.19;10509186;28;20588;-75
2021/06/13 20:16:04;;;;;;;6.20;3.30;;;;;;;15.21;100.00;94780.38;10512081;28;20035;-74
2021/06/13 20:21:05;;;;;;;10.23;3.15;;;;;;;14.96;100.00;94781.66;10488213;28;20392;-74
2021/06/13 20:26:06;;;;;;;6.20;2.63;;;;;;;14.93;100.00;94778.75;10485748;28;20021;-74
2021/06/13 20:31:06;;;;;;;4.57;2.45;;;;;;;15.02;100.00;94772.31;10498161;28;21379;-75
2021/06/13 20:36:07;;;;;;;4.97;2.30;;;;;;;15.05;100.00;94773.63;10483714;28;20060;-75
2021/06/13 20:41:07;;;;;;;8.70;2.17;;;;;;;14.98;100.00;94771.31;10500228;28;20032;-75
2021/06/13 20:46:08;;;;;;;3.80;1.80;;;;;;;15.16;100.00;94764.22;10525978;28;20056;-75
2021/06/13 20:51:08;;;;;;;2.33;1.70;;;;;;;14.96;100.00;94768.13;10513483;28;20102;-74
2021/06/13 20:56:09;;;;;;;3.13;1.55;;;;;;;15.04;100.00;94758.50;10504892;28;20020;-73
2021/06/13 21:01:14;;;;;;;7.30;1.73;;;;;;;14.85;100.00;94766.72;10524707;28;20020;-74
2021/06/13 21:06:16;;;;;;;5.28;1.50;;;;;;;14.77;100.00;94756.59;10525230;28;20347;-74
2021/06/13 21:11:16;;;;;;;8.35;1.60;;;;;;;14.68;100.00;94751.06;10525297;28;20089;-74
2021/06/13 21:16:16;;;;;;;4.07;1.87;;;;;;;14.64;100.00;94750.06;10524559;28;20473;-74
2021/06/13 21:21:17;;;;;;;8.35;1.90;;;;;;;14.49;100.00;94734.88;10509342;28;20270;-74
2021/06/13 21:26:18;;;;;;;8.05;2.55;;;;;;;14.43;100.00;94736.88;10481650;28;20471;-74
2021/06/13 21:31:19;;;;;;;5.00;1.87;;;;;;;14.32;100.00;94749.75;10489250;28;20037;-74
2021/06/13 21:36:19;;;;;;;2.08;1.63;;;;;;;14.35;100.00;94748.38;10489308;28;20085;-74
2021/06/13 21:41:20;;;;;;;6.57;1.70;;;;;;;14.18;100.00;94747.00;10490503;28;20024;-74
2021/06/13 21:46:20;;;;;;;5.65;1.70;;;;;;;14.06;100.00;94757.47;10490912;28;20368;-74
2021/06/13 21:51:21;;;;;;;5.57;2.03;;;;;;;13.95;100.00;94747.91;10490103;28;20028;-74
2021/06/13 21:56:24;;;;;;;4.47;1.67;;;;;;;13.83;100.00;94737.59;10490395;28;20349;-74
2021/06/13 22:01:25;;;;;;;4.85;1.70;;;;;;;13.84;100.00;94733.75;10489390;28;20032;-72
2021/06/13 22:06:26;;;;;;;2.07;1.80;;;;;;;13.90;100.00;94721.78;10489591;28;20025;-73
2021/06/13 22:11:26;;;;;;;1.55;1.45;;;;;;;13.98;100.00;94717.59;10489831;28;20029;-74
2021/06/13 22:16:27;;;;;;;7.93;1.57;;;;;;;13.94;100.00;94713.88;10489374;28;20739;-74
2021/06/13 22:21:27;;;;;;;6.30;1.95;;;;;;;13.90;100.00;94723.69;10489334;28;20034;-74
2021/06/13 22:26:27;;;;;;;7.07;1.87;;;;;;;13.96;100.00;94725.22;10489292;28;20070;-74
2021/06/13 22:31:28;;;;;;;2.55;1.80;;;;;;;13.96;100.00;94714.41;10488928;28;20089;-74
2021/06/13 22:36:29;;;;;;;3.20;1.73;;;;;;;14.06;100.00;94714.22;10507139;28;20459;-74
2021/06/13 22:41:29;;;;;;;5.25;1.58;;;;;;;14.17;100.00;94726.47;10529661;28;20043;-74
2021/06/13 22:46:30;;;;;;;3.00;1.53;;;;;;;14.21;100.00;94718.59;10530247;28;20030;-74
2021/06/13 22:51:30;;;;;;;5.30;2.00;;;;;;;14.16;100.00;94724.06;10529751;28;20431;-74
2021/06/13 22:56:30;;;;;;;3.43;1.57;;;;;;;14.26;100.00;94712.28;10530517;28;20102;-74
2021/06/13 23:01:31;;;;;;;2.80;1.50;;;;;;;14.13;100.00;94706.53;10528100;28;20028;-74
2021/06/13 23:06:31;;;;;;;3.40;1.42;;;;;;;14.03;100.00;94704.03;10527676;28;20031;-74
2021/06/13 23:11:32;;;;;;;5.68;2.22;;;;;;;13.93;100.00;94712.31;10528120;28;20107;-74